This is the latest recevied weather packets stored in our database for station/object W6KRP-12. If no packets are shown the sender has not sent any weather packets the latest 10 day(s).
| Time | Temp. | Humidity | Pressure | Rain* | Wind** | Luminosity | Snow |
|---|---|---|---|---|---|---|---|
| 1778122207 | 22.78° C | 77% | 1010.3 hPa | 0 mm | - | - | - |
| 1778117407 | 23.33° C | 72% | 1011.1 hPa | 0 mm | - | - | - |
| 1778116806 | 23.33° C | 71% | 1010.9 hPa | 0 mm | - | - | - |
| 1778115606 | 23.33° C | 69% | 1010.8 hPa | 0 mm | - | - | - |
| 1778111406 | 26.11° C | 60% | 1010.6 hPa | 0 mm | - | - | - |
| 1778106006 | 29.44° C | 51% | 1009.8 hPa | 0 mm | - | - | - |
| 1778102406 | 31.11° C | 41% | 1010 hPa | 0 mm | - | - | - |
| 1778099407 | 31.11° C | 39% | 1010.6 hPa | 0 mm | - | - | - |
| 1778092207 | 32.78° C | 32% | 1012.3 hPa | 0 mm | - | - | - |
| 1778086807 | 29.44° C | 47% | 1013.2 hPa | 0 mm | - | - | - |
| 1778085606 | 28.33° C | 52% | 1013.2 hPa | 0 mm | - | - | - |
| 1778080207 | 25.56° C | 59% | 1014.2 hPa | 0 mm | - | - | - |
| 1778079006 | 26.11° C | 55% | 1013.8 hPa | 0 mm | - | - | - |
| 1778076606 | 25° C | 66% | 1014 hPa | 0 mm | - | - | - |
| 1778071807 | 21.67° C | 79% | 1013.8 hPa | 0 mm | - | - | - |
| 1778066407 | 15° C | 96% | 1013.5 hPa | 0 mm | - | - | - |
| 1778056206 | 14.44° C | 95% | 1013.2 hPa | 0 mm | - | - | - |
| 1778049606 | 13.89° C | 96% | 1012.8 hPa | 0 mm | - | - | - |
| 1778043606 | 13.89° C | 94% | 1013.9 hPa | 0 mm | - | - | - |
| 1778026206 | 21.11° C | 68% | 1013.8 hPa | 0 mm | - | - | - |
| 1778024407 | 22.78° C | 61% | 1013.7 hPa | 0 mm | - | - | - |
| 1778023806 | 23.89° C | 58% | 1013.8 hPa | 0 mm | - | - | - |
| 1778020207 | 25° C | 52% | 1013.7 hPa | 0 mm | - | - | - |
| 1778019607 | 25° C | 51% | 1013.6 hPa | 0 mm | - | - | - |
| 1778019006 | 25° C | 51% | 1013.5 hPa | 0 mm | - | - | - |
* Rain latest hour (hover to see other rain measurements)
** Current wind speed in m/s (hover to see current wind gust speed)